createdAt,value
2018-12-12T00:05:32.447Z,5.89
2018-12-12T00:11:27.510Z,6.3
2018-12-12T00:17:22.472Z,8.37
2018-12-12T00:23:17.467Z,3.8
2018-12-12T00:29:12.478Z,4.4
2018-12-12T00:35:07.473Z,6.16
2018-12-12T00:41:02.475Z,4.84
2018-12-12T00:46:57.469Z,5.69
2018-12-12T00:52:52.491Z,5.37
2018-12-12T00:58:47.486Z,3.44
2018-12-12T01:04:42.492Z,5.54
2018-12-12T01:10:37.509Z,5
2018-12-12T01:16:32.508Z,3.7
2018-12-12T01:22:27.557Z,2.62
2018-12-12T01:28:22.520Z,6.53
2018-12-12T01:34:17.520Z,6.93
2018-12-12T01:40:12.519Z,4.78
2018-12-12T01:46:07.514Z,9.5
2018-12-12T01:52:02.530Z,5.35
2018-12-12T01:57:57.508Z,5.26
2018-12-12T02:03:52.520Z,4.6
2018-12-12T02:09:47.564Z,5.01
2018-12-12T02:15:42.504Z,2.53
2018-12-12T02:21:37.505Z,2.46
2018-12-12T02:27:32.540Z,3.84
2018-12-12T02:33:27.532Z,2.63
2018-12-12T02:39:22.575Z,2.72
2018-12-12T02:45:17.551Z,5.46
2018-12-12T02:51:12.540Z,14.42
2018-12-12T02:57:07.572Z,6.85
2018-12-12T03:03:02.544Z,6.37
2018-12-12T03:08:57.545Z,5.91
2018-12-12T03:14:52.558Z,5.9
2018-12-12T03:20:47.608Z,6.93
2018-12-12T03:26:42.578Z,7.94
2018-12-12T03:32:37.584Z,8.86
2018-12-12T03:38:32.594Z,12.47
2018-12-12T03:44:27.571Z,11.32
2018-12-12T03:50:22.581Z,5.87
2018-12-12T03:56:17.564Z,8.22
2018-12-12T04:02:12.566Z,5.56
2018-12-12T04:08:07.577Z,6.19
2018-12-12T04:14:02.644Z,6.28
2018-12-12T04:19:57.643Z,4.42
2018-12-12T04:25:52.581Z,3.5
2018-12-12T04:31:47.622Z,4.18
2018-12-12T04:37:42.595Z,3.81
2018-12-12T04:43:37.621Z,5.83
2018-12-12T04:49:32.592Z,8.49
2018-12-12T04:55:27.609Z,7.94
2018-12-12T05:01:22.595Z,5.43
2018-12-12T05:07:17.600Z,5.14
2018-12-12T05:13:12.600Z,5.44
2018-12-12T05:19:07.648Z,7.21
2018-12-12T05:25:02.637Z,5.69
2018-12-12T05:30:57.630Z,5.02
2018-12-12T05:36:52.637Z,6.43
2018-12-12T05:42:47.609Z,7.27
2018-12-12T05:48:42.687Z,7.51
2018-12-12T05:54:37.645Z,7.57
2018-12-12T06:00:32.658Z,10.7
2018-12-12T06:06:27.628Z,11.91
2018-12-12T06:12:22.619Z,10.17
2018-12-12T06:18:17.640Z,10.29
2018-12-12T06:24:12.630Z,11.77
2018-12-12T06:30:07.648Z,10.23
2018-12-12T06:36:02.679Z,9.04
2018-12-12T06:41:57.656Z,8.15
2018-12-12T06:47:52.691Z,5.16
2018-12-12T06:53:47.646Z,7.65
2018-12-12T06:59:42.651Z,7.13
2018-12-12T07:05:37.658Z,7.87
2018-12-12T07:11:32.666Z,7
2018-12-12T07:17:27.672Z,5.98
2018-12-12T07:23:22.662Z,7.88
2018-12-12T07:29:17.651Z,7.82
2018-12-12T07:35:12.669Z,7.12
2018-12-12T07:41:07.657Z,13.3
2018-12-12T07:47:02.705Z,15.19
2018-12-12T07:53:19.812Z,19.89
2018-12-12T07:58:52.732Z,29.98
2018-12-12T08:04:47.741Z,27.39
2018-12-12T08:10:42.702Z,36.55
2018-12-12T08:16:37.726Z,35.25
2018-12-12T08:22:32.718Z,35.22
2018-12-12T08:28:27.736Z,53.87
2018-12-12T08:34:22.696Z,47.47
2018-12-12T08:40:17.722Z,45.77
2018-12-12T08:46:12.728Z,50.38
2018-12-12T08:52:07.713Z,50.09
2018-12-12T08:58:02.727Z,51.08
2018-12-12T09:03:57.702Z,48.95
2018-12-12T09:09:52.765Z,46.83
2018-12-12T09:15:47.721Z,55.73
2018-12-12T09:21:42.764Z,57.95
2018-12-12T09:27:37.731Z,56.53
2018-12-12T09:33:32.722Z,49.9
2018-12-12T09:39:27.772Z,55.16
2018-12-12T09:45:22.746Z,55.63
2018-12-12T09:51:17.730Z,63.1
2018-12-12T09:57:12.785Z,47.29
2018-12-12T10:03:07.737Z,37.93
2018-12-12T10:09:02.772Z,47.73
2018-12-12T10:14:57.751Z,59.54
2018-12-12T10:20:52.751Z,45.56
2018-12-12T10:26:47.761Z,68.68
2018-12-12T10:32:42.763Z,56.35
2018-12-12T10:38:37.757Z,55.43
2018-12-12T10:44:33.458Z,54.52
2018-12-12T10:50:27.793Z,45.1
2018-12-12T10:56:22.765Z,48.51
2018-12-12T11:02:17.781Z,83.26
2018-12-12T11:08:12.802Z,47.51
2018-12-12T11:14:07.784Z,46.75
2018-12-12T11:20:02.795Z,63.31
2018-12-12T11:25:57.790Z,65.71
2018-12-12T11:31:52.823Z,65.81
2018-12-12T11:37:47.792Z,61.78
2018-12-12T11:43:42.870Z,127.58
2018-12-12T11:49:37.868Z,132.09
2018-12-12T11:55:32.860Z,64.84
2018-12-12T12:01:27.794Z,64.21
2018-12-12T12:07:22.821Z,53
2018-12-12T12:13:17.805Z,52.35
2018-12-12T12:19:12.885Z,49.81
2018-12-12T12:25:07.840Z,48.81
2018-12-12T12:31:02.823Z,64.63
2018-12-12T12:36:57.859Z,73.85
2018-12-12T12:42:52.835Z,74.25
2018-12-12T12:48:47.861Z,68.28
2018-12-12T12:54:42.830Z,66.95
2018-12-12T13:00:37.836Z,68.32
2018-12-12T13:06:32.858Z,67.66
2018-12-12T13:12:27.867Z,69.01
2018-12-12T13:18:22.895Z,69.13
2018-12-12T13:24:17.847Z,70.9
2018-12-12T13:30:12.851Z,60.14
2018-12-12T13:36:07.850Z,57.16
2018-12-12T13:42:02.868Z,56.06
2018-12-12T13:47:57.864Z,74.15
2018-12-12T13:53:52.899Z,58.4
2018-12-12T13:59:47.862Z,60.52
2018-12-12T14:05:42.858Z,62.26
2018-12-12T14:11:37.872Z,65.49
2018-12-12T14:17:32.863Z,56.35
2018-12-12T14:23:27.883Z,61.7
2018-12-12T14:29:22.881Z,58.4
2018-12-12T14:35:17.924Z,62.63
2018-12-12T14:41:12.915Z,61.66
2018-12-12T14:47:07.925Z,59.2
2018-12-12T14:53:02.889Z,62.17
2018-12-12T14:58:57.892Z,59.6
2018-12-12T15:04:52.920Z,60.5
2018-12-12T15:10:47.936Z,55.56
2018-12-12T15:16:43.359Z,54.94
2018-12-12T15:22:37.928Z,45.81
2018-12-12T15:28:32.915Z,35.41
2018-12-12T15:34:27.921Z,26.9
2018-12-12T15:40:22.993Z,20.68
2018-12-12T15:46:17.968Z,18.28
2018-12-12T15:52:13.011Z,18.67
2018-12-12T15:58:07.925Z,20.16
2018-12-12T16:04:02.972Z,18.45
2018-12-12T16:09:57.936Z,27.53
2018-12-12T16:15:53.035Z,47.96
2018-12-12T16:21:47.976Z,80.95
2018-12-12T16:27:42.974Z,90.26
2018-12-12T16:33:37.975Z,98.46
2018-12-12T16:39:32.955Z,72.19
2018-12-12T16:45:28.000Z,87.12
2018-12-12T16:51:22.964Z,96.82
2018-12-12T16:57:17.973Z,99.17
2018-12-12T17:03:12.948Z,79.77
2018-12-12T17:09:07.982Z,104.39
2018-12-12T17:15:02.960Z,76.57
2018-12-12T17:20:57.966Z,37.6
2018-12-12T17:26:52.981Z,38.46
2018-12-12T17:32:47.975Z,120.16
2018-12-12T17:38:42.972Z,84.3
2018-12-12T17:44:38.025Z,107.64
2018-12-12T17:50:32.996Z,81.44
2018-12-12T17:56:27.978Z,99.97
2018-12-12T18:02:23.011Z,74.38
2018-12-12T18:08:17.993Z,31.7
2018-12-12T18:14:12.995Z,16.15
2018-12-12T18:20:08.013Z,13.59
2018-12-12T18:26:02.998Z,9.41
2018-12-12T18:31:58.017Z,10.12
2018-12-12T18:37:53.081Z,8.91
2018-12-12T18:43:48.015Z,10.11
2018-12-12T18:49:43.016Z,33.43
2018-12-12T18:55:38.034Z,41.18
2018-12-12T19:01:33.031Z,89
2018-12-12T19:07:28.022Z,63.1
2018-12-12T19:13:23.020Z,81.34
2018-12-12T19:19:18.074Z,93.17
2018-12-12T19:25:13.060Z,74.42
2018-12-12T19:31:08.098Z,52.29
2018-12-12T19:37:03.045Z,76.21
2018-12-12T19:42:58.064Z,102.6
2018-12-12T19:48:53.054Z,104.78
2018-12-12T19:54:48.055Z,120.88
2018-12-12T20:00:43.062Z,113.54
2018-12-12T20:06:38.053Z,126.51
2018-12-12T20:12:33.063Z,122.99
2018-12-12T20:18:28.065Z,27.81
2018-12-12T20:24:23.074Z,3.3
2018-12-12T20:30:18.078Z,2.4
2018-12-12T20:36:13.179Z,1.59
2018-12-12T20:42:08.084Z,1.35
2018-12-12T20:48:03.087Z,1.81
2018-12-12T20:53:58.088Z,1.51
2018-12-12T20:59:53.099Z,1.12
2018-12-12T21:05:54.270Z,2.61
2018-12-12T21:11:43.132Z,118.92
2018-12-12T21:17:38.127Z,129.92
2018-12-12T21:23:33.102Z,102.8
2018-12-12T21:29:28.103Z,112.49
2018-12-12T21:35:23.097Z,107.76
2018-12-12T21:41:18.131Z,81.76
2018-12-12T21:47:13.164Z,82.32
2018-12-12T21:53:08.126Z,90.82
2018-12-12T21:59:03.120Z,92.04
2018-12-12T22:04:58.119Z,90.85
2018-12-12T22:10:53.132Z,86.82
2018-12-12T22:16:48.132Z,72.13
2018-12-12T22:22:43.162Z,69.64
2018-12-12T22:28:38.183Z,47.58
2018-12-12T22:34:33.145Z,53.42
2018-12-12T22:40:28.149Z,44.5
2018-12-12T22:46:23.127Z,34.01
2018-12-12T22:52:18.148Z,10.52
2018-12-12T22:58:13.182Z,3.65
2018-12-12T23:04:08.177Z,2.32
2018-12-12T23:10:03.160Z,46.84
2018-12-12T23:15:58.171Z,55
2018-12-12T23:21:53.178Z,51.64
2018-12-12T23:27:48.168Z,53.07
2018-12-12T23:33:43.181Z,49.89
2018-12-12T23:39:38.189Z,52.53
2018-12-12T23:45:33.218Z,55.17
2018-12-12T23:51:28.185Z,52.61
2018-12-12T23:57:23.199Z,49.81
